createdAt,value
2023-11-18T00:04:45.468Z,16.16
2023-11-18T00:09:53.157Z,16.16
2023-11-18T00:15:14.885Z,16.14
2023-11-18T00:25:58.281Z,16.07
2023-11-18T00:31:02.514Z,16.03
2023-11-18T00:36:08.428Z,16.00
2023-11-18T00:41:16.251Z,15.97
2023-11-18T00:46:27.993Z,15.89
2023-11-18T00:51:33.918Z,15.85
2023-11-18T00:56:36.909Z,15.79
2023-11-18T01:02:18.032Z,15.78
2023-11-18T01:07:39.100Z,15.77
2023-11-18T01:12:46.716Z,15.75
2023-11-18T01:17:51.901Z,15.72
2023-11-18T01:23:02.006Z,15.71
2023-11-18T01:28:07.672Z,15.76
2023-11-18T01:33:09.857Z,15.68
2023-11-18T01:38:13.539Z,15.64
2023-11-18T01:43:15.902Z,15.57
2023-11-18T01:48:18.636Z,15.50
2023-11-18T01:53:20.879Z,15.45
2023-11-18T01:58:24.312Z,15.42
2023-11-18T02:05:23.027Z,15.35
2023-11-18T02:10:26.703Z,15.32
2023-11-18T02:15:33.144Z,15.29
2023-11-18T02:20:36.199Z,15.25
2023-11-18T02:25:46.541Z,15.22
2023-11-18T02:30:50.635Z,15.23
2023-11-18T02:36:15.798Z,15.23
2023-11-18T02:41:19.945Z,15.22
2023-11-18T02:46:24.372Z,15.14
2023-11-18T02:51:27.626Z,15.10
2023-11-18T02:56:29.749Z,15.09
2023-11-18T03:01:35.299Z,15.09
2023-11-18T03:06:37.691Z,15.09
2023-11-18T03:11:40.181Z,15.07
2023-11-18T03:16:42.659Z,15.06
2023-11-18T03:21:44.860Z,15.04
2023-11-18T03:26:47.138Z,15.04
2023-11-18T03:31:51.505Z,15.01
2023-11-18T03:36:53.908Z,14.98
2023-11-18T03:41:58.402Z,14.97
2023-11-18T03:47:00.925Z,14.98
2023-11-18T03:52:03.129Z,14.98
2023-11-18T03:57:06.717Z,15.01
2023-11-18T04:02:10.469Z,15.01
2023-11-18T04:07:12.855Z,14.96
2023-11-18T04:12:16.729Z,14.92
2023-11-18T04:17:18.933Z,14.84
2023-11-18T04:22:21.113Z,14.81
2023-11-18T04:27:23.475Z,14.77
2023-11-18T04:32:25.712Z,14.72
2023-11-18T04:37:28.106Z,14.64
2023-11-18T04:42:31.046Z,14.60
2023-11-18T04:47:34.376Z,14.59
2023-11-18T04:52:37.883Z,14.54
2023-11-18T04:57:40.657Z,14.50
2023-11-18T05:02:44.848Z,14.46
2023-11-18T05:07:50.177Z,14.40
2023-11-18T05:12:57.939Z,14.34
2023-11-18T05:18:03.933Z,14.31
2023-11-18T05:23:11.648Z,14.30
2023-11-18T05:28:18.921Z,14.30
2023-11-18T05:33:25.676Z,14.29
2023-11-18T05:38:40.330Z,14.26
2023-11-18T05:43:55.816Z,14.23
2023-11-18T05:49:12.022Z,14.21
2023-11-18T05:54:16.522Z,14.16
2023-11-18T05:59:18.808Z,14.17
2023-11-18T06:04:25.258Z,14.18
2023-11-18T06:09:31.941Z,14.17
2023-11-18T06:19:59.594Z,14.21
2023-11-18T06:25:04.632Z,14.21
2023-11-18T06:30:11.069Z,14.22
2023-11-18T06:35:18.977Z,14.20
2023-11-18T06:40:27.413Z,14.19
2023-11-18T06:50:58.331Z,14.18
2023-11-18T06:56:02.521Z,14.18
2023-11-18T07:01:07.830Z,14.20
2023-11-18T07:06:20.144Z,14.20
2023-11-18T07:11:23.339Z,14.24
2023-11-18T07:16:27.800Z,14.32
2023-11-18T07:21:35.330Z,14.50
2023-11-18T07:26:46.405Z,14.74
2023-11-18T07:31:50.861Z,14.94
2023-11-18T07:36:57.172Z,15.08
2023-11-18T07:42:08.156Z,15.27
2023-11-18T07:47:19.524Z,15.89
2023-11-18T07:52:26.893Z,16.29
2023-11-18T07:57:31.610Z,16.09
2023-11-18T08:02:48.836Z,15.83
2023-11-18T08:07:55.006Z,15.89
2023-11-18T08:13:09.729Z,16.24
2023-11-18T08:18:23.636Z,16.42
2023-11-18T08:23:32.755Z,17.23
2023-11-18T08:28:38.876Z,18.64
2023-11-18T08:39:15.276Z,20.34
2023-11-18T08:44:24.198Z,20.71
2023-11-18T08:49:36.544Z,20.85
2023-11-18T08:54:39.622Z,21.00
2023-11-18T08:59:49.929Z,21.19
2023-11-18T09:04:54.457Z,21.34
2023-11-18T09:10:03.176Z,21.43
2023-11-18T09:15:13.477Z,21.59
2023-11-18T09:20:25.941Z,21.75
2023-11-18T09:25:41.987Z,21.84
2023-11-18T09:30:53.508Z,21.91
2023-11-18T09:41:19.202Z,22.17
2023-11-18T09:46:35.038Z,22.30
2023-11-18T09:51:42.767Z,22.43
2023-11-18T09:57:14.067Z,22.56
2023-11-18T10:02:22.417Z,22.71
2023-11-18T10:07:36.355Z,22.85
2023-11-18T10:13:10.652Z,23.02
2023-11-18T10:18:31.181Z,23.20
2023-11-18T10:23:42.031Z,23.30
2023-11-18T10:28:51.616Z,23.42
2023-11-18T10:33:54.593Z,23.52
2023-11-18T10:39:00.951Z,23.51
2023-11-18T10:44:16.001Z,23.34
2023-11-18T10:49:24.650Z,23.34
2023-11-18T10:54:30.019Z,23.21
2023-11-18T10:59:32.822Z,23.23
2023-11-18T11:04:46.193Z,23.33
2023-11-18T11:10:01.637Z,23.17
2023-11-18T11:15:25.340Z,23.18
2023-11-18T11:20:54.018Z,23.19
2023-11-18T11:26:43.751Z,22.80
2023-11-18T11:32:01.664Z,22.84
2023-11-18T11:37:13.315Z,22.98
2023-11-18T11:42:32.418Z,22.97
2023-11-18T11:47:55.427Z,22.81
2023-11-18T11:53:19.036Z,22.56
2023-11-18T11:58:42.608Z,22.72
2023-11-18T12:04:00.029Z,22.80
2023-11-18T12:09:12.399Z,22.54
2023-11-18T12:14:47.236Z,22.58
2023-11-18T12:20:12.886Z,22.72
2023-11-18T12:25:18.349Z,22.70
2023-11-18T12:30:44.880Z,22.55
2023-11-18T12:36:29.505Z,22.59
2023-11-18T12:41:41.525Z,22.70
2023-11-18T12:47:01.712Z,22.62
2023-11-18T12:52:18.246Z,22.71
2023-11-18T12:57:35.266Z,22.73
2023-11-18T13:02:43.077Z,22.56
2023-11-18T13:07:49.312Z,22.52
2023-11-18T13:12:55.220Z,22.51
2023-11-18T13:18:16.524Z,22.58
2023-11-18T13:23:25.575Z,22.60
2023-11-18T13:28:38.271Z,22.32
2023-11-18T13:33:44.674Z,22.24
2023-11-18T13:38:50.439Z,21.98
2023-11-18T13:44:03.754Z,21.92
2023-11-18T13:49:13.665Z,21.99
2023-11-18T13:54:23.552Z,22.00
2023-11-18T13:59:32.405Z,21.79
2023-11-18T14:04:49.134Z,21.62
2023-11-18T14:10:00.484Z,21.45
2023-11-18T14:15:14.006Z,21.24
2023-11-18T14:20:21.900Z,21.13
2023-11-18T14:25:26.303Z,21.07
2023-11-18T14:30:31.743Z,20.89
2023-11-18T14:36:14.309Z,20.69
2023-11-18T14:41:18.539Z,20.63
2023-11-18T14:46:26.652Z,20.39
2023-11-18T14:51:42.373Z,20.23
2023-11-18T14:56:52.657Z,20.06
2023-11-18T15:02:02.846Z,20.00
2023-11-18T15:07:17.323Z,19.86
2023-11-18T15:12:30.135Z,19.67
2023-11-18T15:17:46.083Z,19.42
2023-11-18T15:23:26.952Z,19.28
2023-11-18T15:28:30.107Z,19.17
2023-11-18T15:33:35.750Z,19.08
2023-11-18T15:38:44.289Z,19.04
2023-11-18T15:44:11.231Z,18.92
2023-11-18T15:49:21.882Z,18.83
2023-11-18T15:54:26.798Z,18.75
2023-11-18T15:59:35.126Z,18.63
2023-11-18T16:04:40.774Z,18.59
2023-11-18T16:09:49.277Z,18.50
2023-11-18T16:14:58.081Z,18.44
2023-11-18T16:20:10.887Z,18.36
2023-11-18T16:25:23.905Z,18.29
2023-11-18T16:30:37.650Z,18.23
2023-11-18T16:35:45.257Z,18.15
2023-11-18T16:40:52.181Z,18.13
2023-11-18T16:46:01.923Z,18.08
2023-11-18T16:51:11.202Z,18.05
2023-11-18T16:56:15.886Z,18.02
2023-11-18T17:01:22.607Z,17.99
2023-11-18T17:06:33.986Z,17.96
2023-11-18T17:11:42.198Z,17.96
2023-11-18T17:16:51.052Z,17.96
2023-11-18T17:21:57.348Z,17.94
2023-11-18T17:27:00.675Z,17.90
2023-11-18T17:32:13.172Z,17.87
2023-11-18T17:37:25.369Z,17.84
2023-11-18T17:42:30.786Z,17.81
2023-11-18T17:47:41.628Z,17.77
2023-11-18T17:52:56.795Z,17.69
2023-11-18T17:58:04.413Z,17.65
2023-11-18T18:03:16.759Z,17.63
2023-11-18T18:08:21.700Z,17.59
2023-11-18T18:13:28.254Z,17.58
2023-11-18T18:18:35.010Z,17.54
2023-11-18T18:23:50.100Z,17.50
2023-11-18T18:28:59.371Z,17.48
2023-11-18T18:34:05.018Z,17.47
2023-11-18T18:39:10.771Z,17.45
2023-11-18T18:44:17.041Z,17.46
2023-11-18T18:49:19.310Z,17.45
2023-11-18T18:54:32.698Z,17.44
2023-11-18T18:59:41.146Z,17.41
2023-11-18T19:04:45.527Z,17.36
2023-11-18T19:09:54.088Z,17.34
2023-11-18T19:15:10.817Z,17.32
2023-11-18T19:20:19.776Z,17.33
2023-11-18T19:25:33.911Z,17.32
2023-11-18T19:30:43.005Z,17.29
2023-11-18T19:35:49.720Z,17.27
2023-11-18T19:40:55.522Z,17.25
2023-11-18T19:46:06.696Z,17.26
2023-11-18T19:51:14.873Z,17.26
2023-11-18T19:56:19.320Z,17.24
2023-11-18T20:01:38.830Z,17.20
2023-11-18T20:06:50.240Z,17.17
2023-11-18T20:12:09.354Z,17.12
2023-11-18T20:17:19.374Z,17.09
2023-11-18T20:22:22.128Z,17.05
2023-11-18T20:27:31.557Z,17.02
2023-11-18T20:33:03.165Z,16.98
2023-11-18T20:38:06.906Z,16.94
2023-11-18T20:43:12.944Z,16.90
2023-11-18T20:48:16.353Z,16.86
2023-11-18T20:53:21.783Z,16.83
2023-11-18T20:58:30.981Z,16.79
2023-11-18T21:03:43.888Z,16.75
2023-11-18T21:08:48.318Z,16.69
2023-11-18T21:13:51.939Z,16.69
2023-11-18T21:19:07.382Z,16.64
2023-11-18T21:24:21.545Z,16.62
2023-11-18T21:29:27.169Z,16.60
2023-11-18T21:34:42.290Z,16.57
2023-11-18T21:39:46.263Z,16.56
2023-11-18T21:44:54.049Z,16.54
2023-11-18T21:49:57.625Z,16.53
2023-11-18T21:55:10.095Z,16.50
2023-11-18T22:00:29.151Z,16.46
2023-11-18T22:05:33.595Z,16.40
2023-11-18T22:15:57.341Z,16.30
2023-11-18T22:21:03.940Z,16.27
2023-11-18T22:26:10.201Z,16.22
2023-11-18T22:31:18.469Z,16.18
2023-11-18T22:36:30.569Z,16.12
2023-11-18T22:41:34.361Z,16.05
2023-11-18T22:46:38.780Z,15.99
2023-11-18T22:51:44.893Z,15.94
2023-11-18T22:56:57.937Z,15.87
2023-11-18T23:02:17.672Z,15.78
2023-11-18T23:07:28.616Z,15.74
2023-11-18T23:12:38.402Z,15.68
2023-11-18T23:17:56.531Z,15.63
2023-11-18T23:23:11.329Z,15.57
2023-11-18T23:28:15.844Z,15.52
2023-11-18T23:33:25.429Z,15.48
2023-11-18T23:38:41.780Z,15.43
2023-11-18T23:44:09.006Z,15.40
2023-11-18T23:49:17.388Z,15.36
2023-11-18T23:54:25.318Z,15.30
2023-11-18T23:59:32.229Z,15.25
